Time;durP1;ratioP1;P1;durP2;ratioP2;P2;SDS_P1;SDS_P2;PMS_P1;PMS_P2;Temp;Humidity;BMP_temperature;BMP_pressure;BME280_temperature;BME280_humidity;BME280_pressure;Samples;Min_cycle;Max_cycle;Signal;HPM_P1;HPM_P2
2021/05/19 00:00:15;;;;;;;;;;;;;;;24.17;54.48;100807.53;5031542;28;960;-70
2021/05/19 00:02:40;;;;;;;;;;;;;;;24.17;54.78;100813.03;5031194;28;871;-70
2021/05/19 00:05:06;;;;;;;;;;;;;;;24.16;54.64;100814.94;5030948;28;858;-70
2021/05/19 00:07:31;;;;;;;;;;;;;;;24.16;54.71;100805.88;5031341;28;900;-70
2021/05/19 00:09:56;;;;;;;;;;;;;;;24.16;54.90;100820.44;5031246;28;1125;-70
2021/05/19 00:12:22;;;;;;;;;;;;;;;24.16;54.74;100820.44;5030379;28;932;-70
2021/05/19 00:14:47;;;;;;;;;;;;;;;24.16;54.79;100820.44;5030854;28;1131;-70
2021/05/19 00:17:12;;;;;;;;;;;;;;;24.16;54.73;100816.91;5031187;28;1945;-70
2021/05/19 00:19:38;;;;;;;;;;;;;;;24.15;54.87;100816.09;5013665;28;1184;-70
2021/05/19 00:22:03;;;;;;;;;;;;;;;24.16;54.98;100819.66;5030705;28;1200;-69
2021/05/19 00:24:28;;;;;;;;;;;;;;;24.17;55.28;100821.28;5030003;28;1786;-69
2021/05/19 00:26:53;;;;;;;;;;;;;;;24.18;55.20;100829.19;5043924;28;915;-69
2021/05/19 00:29:19;;;;;;;;;;;;;;;24.21;55.49;100825.81;5030433;28;906;-69
2021/05/19 00:31:44;;;;;;;;;;;;;;;24.18;55.77;100825.66;5030718;28;846;-69
2021/05/19 00:34:10;;;;;;;;;;;;;;;24.17;55.63;100832.28;5030785;28;885;-69
2021/05/19 00:36:36;;;;;;;;;;;;;;;24.16;55.96;100827.91;5047806;28;1918;-70
2021/05/19 00:39:02;;;;;;;;;;;;;;;24.16;55.89;100836.97;5050764;28;891;-70
2021/05/19 00:41:27;;;;;;;;;;;;;;;24.13;55.65;100838.41;5038096;28;1999;-69
2021/05/19 00:44:01;;;;;;;;;;;;;;;24.15;56.24;100846.34;5044059;28;867;-70
2021/05/19 00:46:26;;;;;;;;;;;;;;;24.16;56.07;100853.47;5030657;28;906;-70
2021/05/19 00:48:51;;;;;;;;;;;;;;;24.16;55.82;100850.72;5030737;28;870;-69
2021/05/19 00:51:17;;;;;;;;;;;;;;;24.17;56.21;100857.88;5031373;28;945;-71
2021/05/19 00:53:42;;;;;;;;;;;;;;;24.16;55.99;100858.97;5050499;28;910;-71
2021/05/19 00:56:07;;;;;;;;;;;;;;;24.16;56.25;100866.44;5050449;28;1913;-71
2021/05/19 00:58:33;;;;;;;;;;;;;;;24.14;55.98;100858.47;5050630;28;841;-70
2021/05/19 01:00:59;;;;;;;;;;;;;;;24.13;56.25;100851.38;5050380;28;901;-71
2021/05/19 01:03:24;;;;;;;;;;;;;;;24.12;56.27;100853.28;5050351;28;954;-70
2021/05/19 01:05:58;;;;;;;;;;;;;;;24.13;56.41;100849.41;5050849;28;795;-69
2021/05/19 01:11:09;;;;;;;;;;;;;;;24.16;56.38;100863.69;5032440;28;827;-71
2021/05/19 01:13:35;;;;;;;;;;;;;;;24.16;56.34;100855.41;5050447;28;886;-71
2021/05/19 01:16:00;;;;;;;;;;;;;;;24.16;56.58;100863.69;5050286;28;1878;-71
2021/05/19 01:18:26;;;;;;;;;;;;;;;24.14;56.44;100863.97;5050491;28;908;-71
2021/05/19 01:20:54;;;;;;;;;;;;;;;24.13;56.46;100860.44;5050502;28;1150;-71
2021/05/19 01:23:19;;;;;;;;;;;;;;;24.13;56.59;100859.63;5050077;28;1268;-71
2021/05/19 01:25:44;;;;;;;;;;;;;;;24.13;56.55;100857.69;5050508;28;873;-71
2021/05/19 01:28:09;;;;;;;;;;;;;;;24.15;56.69;100851.88;5053730;28;881;-71
2021/05/19 01:30:35;;;;;;;;;;;;;;;24.15;56.76;100865.63;5036200;28;1363;-70
2021/05/19 01:33:00;;;;;;;;;;;;;;;24.17;56.86;100851.56;5054274;28;947;-68
2021/05/19 01:35:26;;;;;;;;;;;;;;;24.15;56.79;100862.88;5054191;28;896;-68
2021/05/19 01:37:51;;;;;;;;;;;;;;;24.15;56.87;100864.78;5052200;28;1969;-68
2021/05/19 01:40:18;;;;;;;;;;;;;;;24.14;56.39;100863.97;5033769;28;852;-68
2021/05/19 01:42:47;;;;;;;;;;;;;;;24.14;56.58;100875.00;5033043;28;871;-67
2021/05/19 01:45:13;;;;;;;;;;;;;;;24.16;56.26;100877.44;5053436;28;869;-67
2021/05/19 01:47:47;;;;;;;;;;;;;;;24.15;56.37;100875.78;5053869;28;903;-68
2021/05/19 01:50:22;;;;;;;;;;;;;;;24.16;56.30;100877.44;5053856;28;870;-67
2021/05/19 01:52:49;;;;;;;;;;;;;;;24.15;56.21;100886.81;5053223;28;872;-68
2021/05/19 01:55:15;;;;;;;;;;;;;;;24.15;56.15;100889.56;5053711;28;841;-68
2021/05/19 01:57:44;;;;;;;;;;;;;;;24.15;55.91;100881.31;5053596;28;1870;-69
2021/05/19 02:00:10;;;;;;;;;;;;;;;24.15;56.01;100884.06;5053843;28;917;-68
2021/05/19 02:02:36;;;;;;;;;;;;;;;24.14;55.98;100883.25;5053698;28;1110;-68
2021/05/19 02:05:01;;;;;;;;;;;;;;;24.12;55.99;100878.06;5053639;28;908;-68
2021/05/19 02:07:27;;;;;;;;;;;;;;;24.13;55.91;100876.13;5052946;28;951;-68
2021/05/19 02:09:52;;;;;;;;;;;;;;;24.12;55.77;100877.25;5053621;28;876;-68
2021/05/19 02:12:18;;;;;;;;;;;;;;;24.12;55.68;100872.56;5053581;28;903;-68
2021/05/19 02:14:43;;;;;;;;;;;;;;;24.12;55.63;100871.75;5053499;28;956;-69
2021/05/19 02:17:08;;;;;;;;;;;;;;;24.13;55.84;100879.69;5052858;28;1878;-71
2021/05/19 02:19:34;;;;;;;;;;;;;;;24.13;55.96;100882.44;5053255;28;895;-69
2021/05/19 02:21:59;;;;;;;;;;;;;;;24.12;55.59;100886.31;5052743;28;1022;-69
2021/05/19 02:24:25;;;;;;;;;;;;;;;24.12;55.93;100897.31;5052906;28;1151;-68
2021/05/19 02:26:50;;;;;;;;;;;;;;;24.11;56.03;100890.19;5053222;28;832;-69
2021/05/19 02:29:16;;;;;;;;;;;;;;;24.11;55.77;100892.94;5053163;28;916;-69
2021/05/19 02:31:42;;;;;;;;;;;;;;;24.11;55.68;100886.66;5040311;28;1641;-69
2021/05/19 02:34:07;;;;;;;;;;;;;;;24.11;55.69;100886.66;5032599;28;1139;-69
2021/05/19 02:36:33;;;;;;;;;;;;;;;24.11;55.89;100895.72;5014546;28;1970;-69
2021/05/19 02:38:59;;;;;;;;;;;;;;;24.11;55.72;100895.72;5031400;28;898;-69
2021/05/19 02:41:24;;;;;;;;;;;;;;;24.12;55.59;100891.00;5025492;28;1359;-69
2021/05/19 02:43:50;;;;;;;;;;;;;;;24.12;55.43;100904.75;5053437;28;853;-70
2021/05/19 02:46:16;;;;;;;;;;;;;;;24.12;55.87;100902.00;5053089;28;1261;-70
2021/05/19 02:48:41;;;;;;;;;;;;;;;24.14;56.01;100908.00;5052866;28;900;-70
2021/05/19 02:51:07;;;;;;;;;;;;;;;24.15;55.86;100911.56;5052496;28;900;-70
2021/05/19 02:53:33;;;;;;;;;;;;;;;24.13;55.96;100909.97;5052672;28;911;-69
2021/05/19 02:55:58;;;;;;;;;;;;;;;24.13;55.78;100912.72;5052562;28;1870;-70
2021/05/19 02:58:24;;;;;;;;;;;;;;;24.12;56.08;100913.03;5052406;28;868;-69
2021/05/19 03:00:49;;;;;;;;;;;;;;;24.11;55.96;100909.47;5051914;28;1603;-70
2021/05/19 03:03:14;;;;;;;;;;;;;;;24.12;55.74;100924.84;5034172;28;1327;-70
2021/05/19 03:05:40;;;;;;;;;;;;;;;24.13;55.89;100917.41;5052074;28;834;-70
2021/05/19 03:08:05;;;;;;;;;;;;;;;24.12;55.74;100926.78;5052274;28;809;-70
2021/05/19 03:10:34;;;;;;;;;;;;;;;24.11;55.92;100928.72;5052037;28;1764;-71
2021/05/19 03:12:59;;;;;;;;;;;;;;;24.11;55.84;100925.97;5035618;28;890;-70
2021/05/19 03:15:26;;;;;;;;;;;;;;;24.13;55.76;100931.16;5049614;28;925;-70
2021/05/19 03:17:51;;;;;;;;;;;;;;;24.15;55.54;100939.94;5032017;28;1874;-71
2021/05/19 03:20:17;;;;;;;;;;;;;;;24.15;55.75;100934.44;5032006;28;957;-70
2021/05/19 03:22:42;;;;;;;;;;;;;;;24.17;55.75;100945.13;5042393;28;1929;-71
2021/05/19 03:25:08;;;;;;;;;;;;;;;24.16;55.63;100949.78;5043022;28;2017;-71
2021/05/19 03:27:34;;;;;;;;;;;;;;;24.18;56.02;100952.25;5034311;28;1873;-67
2021/05/19 03:30:00;;;;;;;;;;;;;;;24.16;55.88;100949.78;5042995;28;1731;-69
2021/05/19 03:32:25;;;;;;;;;;;;;;;24.13;55.86;100953.19;5040146;28;927;-69
2021/05/19 03:34:51;;;;;;;;;;;;;;;24.14;55.60;100957.56;5039640;28;1974;-68
2021/05/19 03:37:16;;;;;;;;;;;;;;;24.15;55.66;100953.69;5036688;28;2090;-68
2021/05/19 03:39:42;;;;;;;;;;;;;;;24.08;52.99;100953.31;5041646;28;1961;-72
2021/05/19 03:42:07;;;;;;;;;;;;;;;24.07;52.63;100963.50;5031245;28;807;-72
2021/05/19 03:44:33;;;;;;;;;;;;;;;24.06;52.67;100953.59;5033775;28;939;-72
2021/05/19 03:46:58;;;;;;;;;;;;;;;24.09;53.17;100954.94;5035691;28;872;-72
2021/05/19 03:49:23;;;;;;;;;;;;;;;24.07;53.56;100958.00;5030538;28;889;-72
2021/05/19 03:51:49;;;;;;;;;;;;;;;24.05;52.76;100956.69;5030072;28;1268;-72
2021/05/19 03:54:15;;;;;;;;;;;;;;;24.03;52.19;100962.50;5033087;28;2185;-72
2021/05/19 03:56:40;;;;;;;;;;;;;;;24.03;52.61;100962.50;5037338;28;1899;-72
2021/05/19 03:59:05;;;;;;;;;;;;;;;24.01;51.39;100962.00;5041449;28;863;-72
2021/05/19 04:01:31;;;;;;;;;;;;;;;24.01;52.29;100959.25;5037837;28;2086;-73
2021/05/19 04:03:56;;;;;;;;;;;;;;;24.00;52.48;100962.31;5030499;28;2033;-72
2021/05/19 04:06:24;;;;;;;;;;;;;;;23.98;53.12;100968.13;5041990;28;1740;-72
2021/05/19 04:08:49;;;;;;;;;;;;;;;23.97;51.77;100963.75;5040025;28;1794;-72
2021/05/19 04:11:15;;;;;;;;;;;;;;;23.97;52.21;100965.69;5039994;28;2119;-72
2021/05/19 04:13:40;;;;;;;;;;;;;;;23.95;53.51;100960.50;5039815;28;771;-72
2021/05/19 04:16:06;;;;;;;;;;;;;;;23.93;52.54;100957.25;5038227;28;1882;-72
2021/05/19 04:18:31;;;;;;;;;;;;;;;23.93;52.96;100971.81;5012574;28;1573;-72
2021/05/19 04:20:57;;;;;;;;;;;;;;;23.93;53.28;100976.50;5040786;28;822;-72
2021/05/19 04:23:25;;;;;;;;;;;;;;;23.92;52.87;100972.94;5029010;28;1170;-72
2021/05/19 04:25:51;;;;;;;;;;;;;;;23.91;53.90;100976.00;5037509;28;1684;-72
2021/05/19 04:28:16;;;;;;;;;;;;;;;23.89;53.81;100992.81;5039892;28;1192;-72
2021/05/19 04:30:42;;;;;;;;;;;;;;;23.88;53.62;100991.16;5039529;28;1637;-72
2021/05/19 04:33:08;;;;;;;;;;;;;;;23.89;53.31;101000.25;5044619;28;1242;-72
2021/05/19 04:35:33;;;;;;;;;;;;;;;23.88;51.19;100988.41;5042825;28;1468;-72
2021/05/19 04:37:59;;;;;;;;;;;;;;;23.89;53.66;100995.56;5045444;28;1938;-75
2021/05/19 04:40:24;;;;;;;;;;;;;;;23.89;52.61;100992.00;5030333;28;1124;-74
2021/05/19 04:42:50;;;;;;;;;;;;;;;23.85;51.07;100991.81;5029940;28;799;-74
2021/05/19 04:45:16;;;;;;;;;;;;;;;23.81;49.57;100990.00;5014358;28;1741;-74
2021/05/19 04:47:41;;;;;;;;;;;;;;;23.79;50.86;100982.06;5038667;28;894;-72
2021/05/19 04:50:07;;;;;;;;;;;;;;;23.80;52.76;100974.59;5033890;28;1561;-74
2021/05/19 04:52:32;;;;;;;;;;;;;;;23.82;52.67;100992.41;5023140;28;1320;-72
2021/05/19 04:55:00;;;;;;;;;;;;;;;23.81;52.52;100995.50;5050157;28;870;-69
2021/05/19 04:57:25;;;;;;;;;;;;;;;23.81;50.42;100990.81;5049363;28;2457;-74
2021/05/19 04:59:51;;;;;;;;;;;;;;;23.76;50.21;100987.31;5050576;28;842;-77
2021/05/19 05:02:16;;;;;;;;;;;;;;;23.77;51.59;100997.22;5031406;28;1208;-72
2021/05/19 05:04:41;;;;;;;;;;;;;;;23.81;51.82;100990.00;5050076;28;1300;-69
2021/05/19 05:07:07;;;;;;;;;;;;;;;23.83;52.34;100994.06;5050175;28;812;-74
2021/05/19 05:09:32;;;;;;;;;;;;;;;23.81;49.07;100990.81;5049704;28;900;-71
2021/05/19 05:11:57;;;;;;;;;;;;;;;23.81;52.57;101001.00;5045945;28;1769;-73
2021/05/19 05:14:23;;;;;;;;;;;;;;;23.79;52.19;100990.31;5049720;28;1629;-74
2021/05/19 05:16:49;;;;;;;;;;;;;;;23.80;51.61;100997.41;5049044;28;1941;-73
2021/05/19 05:19:14;;;;;;;;;;;;;;;23.81;52.23;101001.81;5031463;28;2032;-72
2021/05/19 05:21:39;;;;;;;;;;;;;;;23.81;51.94;100996.31;5036042;28;1847;-76
2021/05/19 05:24:05;;;;;;;;;;;;;;;23.80;52.66;101000.16;5046255;28;1366;-76
2021/05/19 05:26:30;;;;;;;;;;;;;;;23.81;53.05;101004.56;5049336;28;1077;-76
2021/05/19 05:28:55;;;;;;;;;;;;;;;23.81;53.07;100998.25;5048471;28;1301;-76
2021/05/19 05:31:21;;;;;;;;;;;;;;;23.83;53.23;101004.25;5048138;28;877;-75
2021/05/19 05:33:47;;;;;;;;;;;;;;;23.84;53.09;101001.16;5047705;28;877;-77
2021/05/19 05:36:12;;;;;;;;;;;;;;;23.84;53.17;101001.16;5029969;28;1967;-78
2021/05/19 05:38:38;;;;;;;;;;;;;;;23.85;53.25;101004.75;5048476;28;1035;-77
2021/05/19 05:41:03;;;;;;;;;;;;;;;23.84;52.30;101005.88;5048281;28;1226;-79
2021/05/19 05:43:28;;;;;;;;;;;;;;;23.92;53.24;101013.38;5048587;28;885;-84
2021/05/19 05:45:53;;;;;;;;;;;;;;;23.91;53.60;101003.50;5030621;28;1334;-77
2021/05/19 05:48:19;;;;;;;;;;;;;;;23.89;54.09;101012.06;5049265;28;972;-77
2021/05/19 05:50:44;;;;;;;;;;;;;;;23.89;53.79;101011.25;5031043;28;1493;-72
2021/05/19 05:53:09;;;;;;;;;;;;;;;23.90;53.33;101016.47;5048432;28;866;-71
2021/05/19 05:55:35;;;;;;;;;;;;;;;23.91;53.30;101015.31;5049209;28;991;-83
2021/05/19 05:58:00;;;;;;;;;;;;;;;23.85;51.31;101010.25;5049099;28;1929;-78
2021/05/19 06:00:25;;;;;;;;;;;;;;;23.82;50.24;101013.63;5049255;28;866;-76
2021/05/19 06:02:51;;;;;;;;;;;;;;;23.81;50.58;101012.81;5064576;28;1622;-76
2021/05/19 06:05:16;;;;;;;;;;;;;;;23.68;47.50;101013.59;5048692;28;802;-76
2021/05/19 06:07:41;;;;;;;;;;;;;;;23.76;49.56;101012.88;5048887;28;1168;-76
2021/05/19 06:10:07;;;;;;;;;;;;;;;23.82;50.67;101014.41;5049235;28;853;-82
2021/05/19 06:12:33;;;;;;;;;;;;;;;23.80;49.25;101013.91;5049177;28;1011;-72
2021/05/19 06:14:58;;;;;;;;;;;;;;;23.83;51.13;101012.50;5051965;28;803;-77
2021/05/19 06:17:25;;;;;;;;;;;;;;;23.82;50.43;101014.41;5034693;28;1995;-77
2021/05/19 06:19:50;;;;;;;;;;;;;;;23.82;51.04;101014.41;5052565;28;840;-77
2021/05/19 06:22:16;;;;;;;;;;;;;;;23.80;50.38;101008.41;5051851;28;1341;-72
2021/05/19 06:24:41;;;;;;;;;;;;;;;23.81;49.51;101012.81;5052031;28;949;-75
2021/05/19 06:27:06;;;;;;;;;;;;;;;23.77;47.97;101011.81;5052657;28;1011;-78
2021/05/19 06:29:32;;;;;;;;;;;;;;;23.78;50.92;101021.66;5052658;28;1306;-74
2021/05/19 06:31:57;;;;;;;;;;;;;;;23.81;51.50;101014.75;5052533;28;933;-74
2021/05/19 06:34:22;;;;;;;;;;;;;;;23.84;51.83;101006.66;5035591;28;1103;-75
2021/05/19 06:36:50;;;;;;;;;;;;;;;23.86;51.68;101009.91;5036658;28;1994;-76
2021/05/19 06:39:18;;;;;;;;;;;;;;;23.88;52.02;101001.38;5054548;28;946;-79
2021/05/19 06:41:47;;;;;;;;;;;;;;;23.89;52.01;101008.50;5053914;28;1007;-78
2021/05/19 06:44:13;;;;;;;;;;;;;;;23.89;51.97;101008.50;5055094;28;884;-78
2021/05/19 06:46:39;;;;;;;;;;;;;;;23.92;52.31;101007.88;5054629;28;787;-82
2021/05/19 06:49:05;;;;;;;;;;;;;;;23.93;52.53;101006.75;5054565;28;885;-83
2021/05/19 06:51:30;;;;;;;;;;;;;;;23.93;52.65;101010.31;5054265;28;1560;-78
2021/05/19 06:53:56;;;;;;;;;;;;;;;23.93;52.44;101012.28;5024997;28;1596;-76
2021/05/19 06:56:21;;;;;;;;;;;;;;;23.95;51.98;101006.47;5050091;28;1874;-77
2021/05/19 06:58:47;;;;;;;;;;;;;;;23.96;52.11;101005.31;5069839;28;1192;-78
2021/05/19 07:01:12;;;;;;;;;;;;;;;23.89;52.19;101003.81;5036001;28;1518;-78
2021/05/19 07:03:37;;;;;;;;;;;;;;;23.90;51.59;100991.72;5054263;28;878;-79
2021/05/19 07:06:03;;;;;;;;;;;;;;;23.87;51.62;100995.06;5043124;28;890;-79
2021/05/19 07:08:28;;;;;;;;;;;;;;;23.88;51.49;100996.66;5019766;28;1377;-79
2021/05/19 07:10:53;;;;;;;;;;;;;;;23.89;51.63;100992.81;5049914;28;1548;-81
2021/05/19 07:13:19;;;;;;;;;;;;;;;23.89;51.89;100979.06;5036311;28;1223;-78
2021/05/19 07:15:46;;;;;;;;;;;;;;;23.91;51.81;100976.81;5052738;28;809;-74
2021/05/19 07:18:14;;;;;;;;;;;;;;;23.98;52.27;100976.38;5052474;28;1874;-77
2021/05/19 07:20:40;;;;;;;;;;;;;;;24.00;52.94;100979.63;5062831;28;2039;-73
2021/05/19 07:23:05;;;;;;;;;;;;;;;23.99;52.65;100978.00;5041045;28;1437;-82
2021/05/19 07:25:31;;;;;;;;;;;;;;;23.95;52.56;100992.72;5033271;28;1008;-82
2021/05/19 07:27:56;;;;;;;;;;;;;;;23.92;52.45;100996.88;5053992;28;817;-82
2021/05/19 07:30:22;;;;;;;;;;;;;;;23.91;52.66;101004.31;5035885;28;1299;-82
2021/05/19 07:32:47;;;;;;;;;;;;;;;23.90;52.36;100990.88;5053902;28;810;-83
2021/05/19 07:35:13;;;;;;;;;;;;;;;23.89;52.57;100995.56;5052722;28;1607;-83
2021/05/19 07:37:38;;;;;;;;;;;;;;;23.89;52.52;100994.75;5041031;28;1971;-75
2021/05/19 07:40:04;;;;;;;;;;;;;;;23.92;53.24;100991.38;5045418;28;1994;-76
2021/05/19 07:42:29;;;;;;;;;;;;;;;23.91;53.39;100990.56;5040363;28;1155;-76
2021/05/19 07:44:54;;;;;;;;;;;;;;;23.92;53.48;100992.22;5031242;28;822;-74
2021/05/19 07:47:20;;;;;;;;;;;;;;;23.96;53.95;100991.56;5014730;28;1257;-78
2021/05/19 07:49:45;;;;;;;;;;;;;;;23.97;54.33;100984.97;5031406;28;894;-80
2021/05/19 07:52:10;;;;;;;;;;;;;;;23.96;54.31;100975.06;5031539;28;867;-75
2021/05/19 07:54:36;;;;;;;;;;;;;;;23.96;54.43;100981.38;5031942;28;1895;-76
2021/05/19 07:59:45;;;;;;;;;;;;;;;23.96;54.51;100977.81;5031301;28;1003;-74
2021/05/19 08:02:12;;;;;;;;;;;;;;;23.95;54.48;100973.44;5030518;28;938;-73
2021/05/19 08:04:38;;;;;;;;;;;;;;;23.99;54.47;100977.19;5038765;28;1733;-82
2021/05/19 08:07:04;;;;;;;;;;;;;;;23.97;54.54;100980.25;5045432;28;1590;-72
2021/05/19 08:09:30;;;;;;;;;;;;;;;24.00;54.77;100981.56;5044069;28;1376;-75
2021/05/19 08:11:56;;;;;;;;;;;;;;;23.98;54.91;100979.13;5046473;28;2015;-76
2021/05/19 08:14:21;;;;;;;;;;;;;;;23.96;54.99;100975.88;5047604;28;1511;-74
2021/05/19 08:16:46;;;;;;;;;;;;;;;23.97;54.82;100982.22;5050199;28;1886;-74
2021/05/19 08:19:12;;;;;;;;;;;;;;;23.97;55.01;100980.25;5050377;28;1776;-72
2021/05/19 08:21:37;;;;;;;;;;;;;;;23.99;54.42;100983.50;5050580;28;1014;-74
2021/05/19 08:24:03;;;;;;;;;;;;;;;24.01;53.78;100981.25;5049904;28;1670;-74
2021/05/19 08:26:29;;;;;;;;;;;;;;;24.00;53.70;100982.38;5045088;28;1731;-74
2021/05/19 08:28:54;;;;;;;;;;;;;;;24.02;53.15;100966.38;5052484;28;1847;-77
2021/05/19 08:31:20;;;;;;;;;;;;;;;24.03;53.18;100975.44;5041044;28;1511;-78
2021/05/19 08:33:46;;;;;;;;;;;;;;;24.03;52.54;100980.97;5048577;28;1456;-78
2021/05/19 08:36:11;;;;;;;;;;;;;;;24.03;52.49;100979.00;5047393;28;1914;-78
2021/05/19 08:38:38;;;;;;;;;;;;;;;24.04;52.34;100979.81;5045897;28;1755;-78
2021/05/19 08:41:04;;;;;;;;;;;;;;;24.04;52.36;100968.81;5035354;28;1411;-78
2021/05/19 08:43:30;;;;;;;;;;;;;;;24.04;52.05;100969.63;5048632;28;1821;-72
2021/05/19 08:45:55;;;;;;;;;;;;;;;24.01;51.72;100962.00;5048564;28;1621;-75
2021/05/19 08:48:21;;;;;;;;;;;;;;;24.02;51.50;100960.06;5042543;28;2081;-76
2021/05/19 08:50:46;;;;;;;;;;;;;;;24.02;51.22;100963.63;5051137;28;1504;-78
2021/05/19 08:53:12;;;;;;;;;;;;;;;24.00;50.96;100951.31;5050985;28;1608;-77
2021/05/19 08:55:37;;;;;;;;;;;;;;;23.99;50.51;100952.44;5051356;28;1090;-75
2021/05/19 08:58:02;;;;;;;;;;;;;;;24.00;50.34;100954.84;5050269;28;1943;-74
2021/05/19 09:00:29;;;;;;;;;;;;;;;24.01;50.19;100950.19;5052314;28;791;-79
2021/05/19 09:03:03;;;;;;;;;;;;;;;23.99;49.84;100946.94;5024218;28;2142;-75
2021/05/19 09:05:31;;;;;;;;;;;;;;;23.99;49.63;100945.00;5035731;28;1673;-74
2021/05/19 09:08:08;;;;;;;;;;;;;;;24.00;49.95;100952.09;5044076;28;1752;-76
2021/05/19 09:10:33;;;;;;;;;;;;;;;24.02;50.13;100947.09;5031754;28;1248;-77
2021/05/19 09:12:59;;;;;;;;;;;;;;;24.03;50.30;100946.00;5039177;28;1902;-77
2021/05/19 09:15:24;;;;;;;;;;;;;;;24.03;50.44;100940.50;5037580;28;873;-78
2021/05/19 09:18:08;;;;;;;;;;;;;;;24.04;50.60;100942.09;5033438;28;1870;-77
2021/05/19 09:20:41;;;;;;;;;;;;;;;24.04;50.67;100944.03;5038277;28;1802;-78
2021/05/19 09:23:11;;;;;;;;;;;;;;;24.04;50.88;100942.09;5040412;28;1516;-78
2021/05/19 09:25:37;;;;;;;;;;;;;;;24.06;50.57;100934.34;5019831;28;1449;-78
2021/05/19 09:28:07;;;;;;;;;;;;;;;24.05;50.50;100937.44;5051046;28;973;-78
2021/05/19 09:30:39;;;;;;;;;;;;;;;24.05;50.17;100929.19;5051693;28;841;-78
2021/05/19 09:33:17;;;;;;;;;;;;;;;24.03;50.49;100939.69;5046377;28;1532;-78
2021/05/19 09:35:43;;;;;;;;;;;;;;;24.03;49.73;100936.94;5031528;28;887;-78
2021/05/19 09:38:24;;;;;;;;;;;;;;;24.04;50.11;100941.28;5031718;28;1919;-78
2021/05/19 09:41:09;;;;;;;;;;;;;;;24.02;49.80;100922.34;5034079;28;1047;-78
2021/05/19 09:43:34;;;;;;;;;;;;;;;24.02;50.11;100922.34;5042957;28;1341;-78
2021/05/19 09:46:03;;;;;;;;;;;;;;;24.02;50.24;100916.84;5039019;28;973;-78
2021/05/19 09:48:28;;;;;;;;;;;;;;;24.02;50.24;100922.34;5026667;28;1653;-78
2021/05/19 09:50:53;;;;;;;;;;;;;;;24.03;50.12;100923.19;5046151;28;1162;-78
2021/05/19 09:53:19;;;;;;;;;;;;;;;24.03;50.16;100939.69;5033729;28;1430;-78
2021/05/19 09:56:04;;;;;;;;;;;;;;;24.02;50.29;100916.84;5049628;28;1317;-78
2021/05/19 09:58:36;;;;;;;;;;;;;;;24.01;50.08;100917.19;5048135;28;1170;-78
2021/05/19 10:01:01;;;;;;;;;;;;;;;24.00;50.12;100902.59;5045570;28;1266;-78
2021/05/19 10:03:27;;;;;;;;;;;;;;;24.00;50.33;100913.59;5047996;28;854;-78
2021/05/19 10:06:05;;;;;;;;;;;;;;;24.00;50.08;100907.28;5025557;28;1185;-78
2021/05/19 10:08:30;;;;;;;;;;;;;;;24.00;50.08;100902.59;5046089;28;1665;-78
2021/05/19 10:11:04;;;;;;;;;;;;;;;23.99;50.03;100905.66;5045135;28;1245;-75
2021/05/19 10:13:30;;;;;;;;;;;;;;;23.99;50.51;100900.97;5052482;28;961;-76
2021/05/19 10:15:58;;;;;;;;;;;;;;;24.00;50.27;100899.84;5054041;28;995;-77
2021/05/19 10:18:27;;;;;;;;;;;;;;;23.97;50.15;100897.72;5031360;28;2012;-78
2021/05/19 10:20:56;;;;;;;;;;;;;;;23.98;50.31;100902.09;5034527;28;830;-76
2021/05/19 10:23:35;;;;;;;;;;;;;;;24.01;49.66;100898.72;5048935;28;1393;-76
2021/05/19 10:26:05;;;;;;;;;;;;;;;24.05;50.20;100902.47;5050768;28;1807;-81
2021/05/19 10:28:44;;;;;;;;;;;;;;;24.03;50.59;100896.47;5017392;28;1390;-76
2021/05/19 10:31:43;;;;;;;;;;;;;;;24.04;50.74;100897.28;5054654;28;873;-78
2021/05/19 10:34:08;;;;;;;;;;;;;;;24.03;50.89;100893.72;5054816;28;826;-77
2021/05/19 10:36:39;;;;;;;;;;;;;;;24.05;50.12;100891.47;5054367;28;1909;-77
2021/05/19 10:39:07;;;;;;;;;;;;;;;24.08;50.64;100887.25;5054386;28;912;-79
2021/05/19 10:41:36;;;;;;;;;;;;;;;24.08;50.96;100881.75;5037211;28;1315;-81
2021/05/19 10:44:05;;;;;;;;;;;;;;;24.07;51.49;100889.22;5019611;28;2543;-80
2021/05/19 10:46:47;;;;;;;;;;;;;;;24.06;51.44;100879.31;5017051;28;1362;-78
2021/05/19 10:49:12;;;;;;;;;;;;;;;24.06;51.64;100876.56;5034354;28;947;-78
2021/05/19 11:00:11;;;;;;;;;;;;;;;24.08;51.63;100862.50;5052749;28;792;-74
2021/05/19 11:02:52;;;;;;;;;;;;;;;24.13;51.38;100859.63;5010899;28;1341;-75
2021/05/19 11:05:17;;;;;;;;;;;;;;;24.16;51.38;100858.16;4994710;28;1497;-78
2021/05/19 11:08:01;;;;;;;;;;;;;;;24.14;51.80;100858.47;5024340;28;1473;-84
2021/05/19 11:10:26;;;;;;;;;;;;;;;24.13;51.93;100860.44;5033804;28;862;-79
2021/05/19 11:12:54;;;;;;;;;;;;;;;24.11;52.32;100846.16;5053810;28;995;-75
2021/05/19 11:15:35;;;;;;;;;;;;;;;24.13;52.32;100838.41;5053146;28;878;-78
2021/05/19 11:18:12;;;;;;;;;;;;;;;24.12;52.24;100847.78;5032762;28;1941;-78
2021/05/19 11:20:37;;;;;;;;;;;;;;;24.11;51.95;100840.66;5033591;28;1506;-78
2021/05/19 11:23:12;;;;;;;;;;;;;;;24.10;51.71;100830.78;5033550;28;1506;-79
2021/05/19 11:25:38;;;;;;;;;;;;;;;24.09;51.73;100826.41;5051328;28;875;-79
2021/05/19 11:28:04;;;;;;;;;;;;;;;24.09;51.59;100829.16;5050804;28;916;-79
2021/05/19 11:30:29;;;;;;;;;;;;;;;24.08;51.66;100833.03;5050755;28;963;-79
2021/05/19 11:33:06;;;;;;;;;;;;;;;24.09;51.39;100820.91;5050602;28;881;-79
2021/05/19 11:35:31;;;;;;;;;;;;;;;24.08;51.20;100816.53;5051159;28;767;-79
2021/05/19 11:38:07;;;;;;;;;;;;;;;24.09;51.33;100809.91;5050763;28;1910;-79
2021/05/19 11:40:39;;;;;;;;;;;;;;;24.08;51.37;100816.53;5050839;28;897;-79
2021/05/19 11:43:05;;;;;;;;;;;;;;;24.08;51.48;100808.25;5032779;28;1293;-78
2021/05/19 11:45:31;;;;;;;;;;;;;;;24.07;51.42;100808.59;5051236;28;849;-79
2021/05/19 11:47:56;;;;;;;;;;;;;;;24.06;51.25;100805.03;5050398;28;923;-79
2021/05/19 11:50:23;;;;;;;;;;;;;;;24.06;51.03;100796.75;5051100;28;894;-79
2021/05/19 11:53:09;;;;;;;;;;;;;;;24.06;51.05;100796.75;5050735;28;905;-79
2021/05/19 11:55:37;;;;;;;;;;;;;;;24.06;50.57;100799.50;5050632;28;818;-79
2021/05/19 11:58:03;;;;;;;;;;;;;;;24.07;50.63;100798.41;5050520;28;1874;-79
2021/05/19 12:00:31;;;;;;;;;;;;;;;24.06;50.24;100794.00;5050615;28;903;-79
2021/05/19 12:02:57;;;;;;;;;;;;;;;24.04;50.04;100788.00;5050477;28;874;-79
2021/05/19 12:05:23;;;;;;;;;;;;;;;24.06;50.12;100779.44;5048986;28;850;-79
2021/05/19 12:07:49;;;;;;;;;;;;;;;24.06;50.10;100780.25;5050248;28;1076;-79
2021/05/19 12:10:15;;;;;;;;;;;;;;;24.06;50.17;100776.69;5050269;28;905;-79
2021/05/19 12:12:40;;;;;;;;;;;;;;;24.04;49.75;100771.50;5050355;28;992;-79
2021/05/19 12:15:06;;;;;;;;;;;;;;;24.05;49.63;100758.59;5050372;28;818;-78
2021/05/19 12:17:31;;;;;;;;;;;;;;;24.04;49.94;100759.69;5050348;28;1870;-75
2021/05/19 12:19:57;;;;;;;;;;;;;;;24.04;49.83;100766.00;5050617;28;850;-77
2021/05/19 12:22:23;;;;;;;;;;;;;;;24.04;50.16;100766.00;5050311;28;1280;-78
2021/05/19 12:24:49;;;;;;;;;;;;;;;24.05;49.91;100755.84;5050525;28;949;-78
2021/05/19 12:27:16;;;;;;;;;;;;;;;24.03;49.83;100753.38;5050554;28;773;-78
2021/05/19 12:29:45;;;;;;;;;;;;;;;24.03;50.29;100755.34;5035282;28;1690;-78
2021/05/19 12:32:12;;;;;;;;;;;;;;;24.02;50.99;100759.19;5032649;28;1287;-78
2021/05/19 12:34:38;;;;;;;;;;;;;;;24.01;51.22;100760.34;5019861;28;1612;-78
2021/05/19 12:37:09;;;;;;;;;;;;;;;23.98;51.65;100767.28;5020605;28;1951;-78
2021/05/19 12:39:36;;;;;;;;;;;;;;;23.99;51.52;100768.09;5048907;28;856;-78
2021/05/19 12:42:15;;;;;;;;;;;;;;;23.99;51.63;100757.91;5045679;28;1699;-78
2021/05/19 12:44:41;;;;;;;;;;;;;;;24.03;51.68;100760.84;5054353;28;1465;-78
2021/05/19 12:47:08;;;;;;;;;;;;;;;24.04;51.57;100748.69;5049212;28;869;-78
2021/05/19 12:49:34;;;;;;;;;;;;;;;24.03;51.78;100761.66;5037547;28;1476;-79
2021/05/19 12:52:04;;;;;;;;;;;;;;;24.01;51.72;100743.84;5032510;28;1295;-78
2021/05/19 12:54:34;;;;;;;;;;;;;;;24.00;50.64;100747.72;5047524;28;855;-79
2021/05/19 12:57:02;;;;;;;;;;;;;;;23.98;50.91;100742.50;5032547;28;1855;-79
2021/05/19 12:59:28;;;;;;;;;;;;;;;23.96;50.99;100736.53;5027962;28;763;-78
2021/05/19 13:01:53;;;;;;;;;;;;;;;23.97;51.78;100729.91;5035172;28;1702;-79